Terminal Aerodrome Forecast
Issued by NWS

Home | Current Version | Previous Version | Text Only | Print | Product List | Glossary On
Versions: 1 2 3 4 5 6 7 8 9 10 11 12 13 14 15 16 17 18 19 20 21 22 23 24 25 26 27
000
FTUS45 KGJT 220542
TAFTEX
TAF
KTEX 220542Z 2206/2306 18006KT P6SM BKN100
     FM220800 23012G25KT P6SM BKN050 OVC100 WS020/24040KT
     FM221500 18011G21KT P6SM VCSH SCT070 OVC100
     FM221800 23015G35KT P6SM SCT090 BKN150
     FM230100 22022G35KT P6SM BKN100=

USA.gov is the U.S. government's official web portal to all federal, state and local government web resources and services.